sensor_id;sensor_type;location;lat;lon;timestamp;temperature;humidity
26278;DHT22;14000;52.056;8.510;2022-11-20T00:00:51;-3.70;99.90
26278;DHT22;14000;52.056;8.510;2022-11-20T00:03:16;-3.70;99.90
26278;DHT22;14000;52.056;8.510;2022-11-20T00:05:43;-3.80;99.90
26278;DHT22;14000;52.056;8.510;2022-11-20T00:08:08;-3.80;99.90
26278;DHT22;14000;52.056;8.510;2022-11-20T00:10:38;-3.80;99.90
26278;DHT22;14000;52.056;8.510;2022-11-20T00:13:04;-3.80;99.90
26278;DHT22;14000;52.056;8.510;2022-11-20T00:15:29;-3.80;99.90
26278;DHT22;14000;52.056;8.510;2022-11-20T00:17:55;-3.80;99.90
26278;DHT22;14000;52.056;8.510;2022-11-20T00:20:20;-2.70;99.90
26278;DHT22;14000;52.056;8.510;2022-11-20T00:22:46;-3.80;99.90
26278;DHT22;14000;52.056;8.510;2022-11-20T00:25:12;-3.90;99.90
26278;DHT22;14000;52.056;8.510;2022-11-20T00:27:37;-3.90;99.90
26278;DHT22;14000;52.056;8.510;2022-11-20T00:30:04;-3.90;99.90
26278;DHT22;14000;52.056;8.510;2022-11-20T00:32:30;-3.90;99.90
26278;DHT22;14000;52.056;8.510;2022-11-20T00:34:55;-3.90;99.90
26278;DHT22;14000;52.056;8.510;2022-11-20T00:37:21;-3.90;99.90
26278;DHT22;14000;52.056;8.510;2022-11-20T00:39:46;-4.10;99.90
26278;DHT22;14000;52.056;8.510;2022-11-20T00:42:12;-4.10;99.90
26278;DHT22;14000;52.056;8.510;2022-11-20T00:44:38;-4.00;99.90
26278;DHT22;14000;52.056;8.510;2022-11-20T00:47:03;-4.00;99.90
26278;DHT22;14000;52.056;8.510;2022-11-20T00:49:29;-3.20;99.90
26278;DHT22;14000;52.056;8.510;2022-11-20T00:51:54;-4.20;99.90
26278;DHT22;14000;52.056;8.510;2022-11-20T00:54:20;-4.10;99.90
26278;DHT22;14000;52.056;8.510;2022-11-20T00:56:46;-4.10;99.90
26278;DHT22;14000;52.056;8.510;2022-11-20T00:59:11;-4.20;99.90
26278;DHT22;14000;52.056;8.510;2022-11-20T01:01:37;-4.20;99.90
26278;DHT22;14000;52.056;8.510;2022-11-20T01:04:04;-4.20;99.90
26278;DHT22;14000;52.056;8.510;2022-11-20T01:06:35;-4.20;99.90
26278;DHT22;14000;52.056;8.510;2022-11-20T01:09:07;-4.20;99.90
26278;DHT22;14000;52.056;8.510;2022-11-20T01:11:35;-4.20;99.90
26278;DHT22;14000;52.056;8.510;2022-11-20T01:14:05;-4.20;99.90
26278;DHT22;14000;52.056;8.510;2022-11-20T01:16:37;-4.20;99.90
26278;DHT22;14000;52.056;8.510;2022-11-20T01:19:04;-4.20;99.90
26278;DHT22;14000;52.056;8.510;2022-11-20T01:21:36;-4.20;99.90
26278;DHT22;14000;52.056;8.510;2022-11-20T01:24:03;-4.20;99.90
26278;DHT22;14000;52.056;8.510;2022-11-20T01:26:31;-4.20;99.90
26278;DHT22;14000;52.056;8.510;2022-11-20T01:28:58;-4.20;99.90
26278;DHT22;14000;52.056;8.510;2022-11-20T01:31:32;-4.20;99.90
26278;DHT22;14000;52.056;8.510;2022-11-20T01:34:00;-4.20;99.90
26278;DHT22;14000;52.056;8.510;2022-11-20T01:36:29;-4.20;99.90
26278;DHT22;14000;52.056;8.510;2022-11-20T01:38:57;-4.20;99.90
26278;DHT22;14000;52.056;8.510;2022-11-20T01:41:27;-4.30;99.90
26278;DHT22;14000;52.056;8.510;2022-11-20T01:47:38;-4.30;99.90
26278;DHT22;14000;52.056;8.510;2022-11-20T01:50:26;-4.30;99.90
26278;DHT22;14000;52.056;8.510;2022-11-20T01:53:03;-4.30;99.90
26278;DHT22;14000;52.056;8.510;2022-11-20T01:55:37;-4.30;99.90
26278;DHT22;14000;52.056;8.510;2022-11-20T01:58:04;-4.30;99.90
26278;DHT22;14000;52.056;8.510;2022-11-20T02:00:31;-4.40;99.90
26278;DHT22;14000;52.056;8.510;2022-11-20T02:02:59;-4.40;99.90
26278;DHT22;14000;52.056;8.510;2022-11-20T02:05:27;-4.50;99.90
26278;DHT22;14000;52.056;8.510;2022-11-20T02:07:55;-4.50;99.90
26278;DHT22;14000;52.056;8.510;2022-11-20T02:10:22;-4.50;99.90
26278;DHT22;14000;52.056;8.510;2022-11-20T02:12:48;-4.50;99.90
26278;DHT22;14000;52.056;8.510;2022-11-20T02:15:33;-4.60;99.90
26278;DHT22;14000;52.056;8.510;2022-11-20T02:17:59;-4.60;99.90
26278;DHT22;14000;52.056;8.510;2022-11-20T02:20:25;-4.60;99.90
26278;DHT22;14000;52.056;8.510;2022-11-20T02:22:56;-4.60;99.90
26278;DHT22;14000;52.056;8.510;2022-11-20T02:25:24;-4.60;99.90
26278;DHT22;14000;52.056;8.510;2022-11-20T02:27:52;-4.60;99.90
26278;DHT22;14000;52.056;8.510;2022-11-20T02:30:18;-4.50;99.90
26278;DHT22;14000;52.056;8.510;2022-11-20T02:32:43;-4.60;99.90
26278;DHT22;14000;52.056;8.510;2022-11-20T02:35:35;-4.60;99.90
26278;DHT22;14000;52.056;8.510;2022-11-20T02:37:56;-4.60;99.90
26278;DHT22;14000;52.056;8.510;2022-11-20T02:40:23;-4.60;99.90
26278;DHT22;14000;52.056;8.510;2022-11-20T02:42:52;-4.70;99.90
26278;DHT22;14000;52.056;8.510;2022-11-20T02:45:18;-4.70;99.90
26278;DHT22;14000;52.056;8.510;2022-11-20T02:47:45;-4.70;99.90
26278;DHT22;14000;52.056;8.510;2022-11-20T02:50:10;-4.70;99.90
26278;DHT22;14000;52.056;8.510;2022-11-20T02:52:36;-4.80;99.90
26278;DHT22;14000;52.056;8.510;2022-11-20T02:55:02;-4.80;99.90
26278;DHT22;14000;52.056;8.510;2022-11-20T02:57:27;-4.70;99.90
26278;DHT22;14000;52.056;8.510;2022-11-20T02:59:53;-4.70;99.90
26278;DHT22;14000;52.056;8.510;2022-11-20T03:02:19;-4.80;99.90
26278;DHT22;14000;52.056;8.510;2022-11-20T03:04:45;-4.80;99.90
26278;DHT22;14000;52.056;8.510;2022-11-20T03:07:11;-4.90;99.90
26278;DHT22;14000;52.056;8.510;2022-11-20T03:09:37;-4.80;99.90
26278;DHT22;14000;52.056;8.510;2022-11-20T03:12:02;-4.80;99.90
26278;DHT22;14000;52.056;8.510;2022-11-20T03:14:28;-4.80;99.90
26278;DHT22;14000;52.056;8.510;2022-11-20T03:16:54;-4.80;99.90
26278;DHT22;14000;52.056;8.510;2022-11-20T03:19:20;-4.80;99.90
26278;DHT22;14000;52.056;8.510;2022-11-20T03:21:46;-4.90;99.90
26278;DHT22;14000;52.056;8.510;2022-11-20T03:24:12;-4.90;99.90
26278;DHT22;14000;52.056;8.510;2022-11-20T03:26:39;-4.90;99.90
26278;DHT22;14000;52.056;8.510;2022-11-20T03:29:05;-4.90;99.90
26278;DHT22;14000;52.056;8.510;2022-11-20T03:31:34;-4.90;99.90
26278;DHT22;14000;52.056;8.510;2022-11-20T03:34:00;-4.90;99.90
26278;DHT22;14000;52.056;8.510;2022-11-20T03:36:27;-5.00;99.90
26278;DHT22;14000;52.056;8.510;2022-11-20T03:38:56;-5.00;99.90
26278;DHT22;14000;52.056;8.510;2022-11-20T03:41:26;-5.00;99.90
26278;DHT22;14000;52.056;8.510;2022-11-20T03:43:55;-4.90;99.90
26278;DHT22;14000;52.056;8.510;2022-11-20T03:46:21;-4.90;99.90
26278;DHT22;14000;52.056;8.510;2022-11-20T03:48:47;-5.00;99.90
26278;DHT22;14000;52.056;8.510;2022-11-20T03:53:47;-5.00;99.90
26278;DHT22;14000;52.056;8.510;2022-11-20T03:56:14;-5.00;99.90
26278;DHT22;14000;52.056;8.510;2022-11-20T03:58:42;-5.00;99.90
26278;DHT22;14000;52.056;8.510;2022-11-20T04:01:16;-5.00;99.90
26278;DHT22;14000;52.056;8.510;2022-11-20T04:03:43;-5.00;99.90
26278;DHT22;14000;52.056;8.510;2022-11-20T04:06:12;-5.10;99.90
26278;DHT22;14000;52.056;8.510;2022-11-20T04:08:39;-5.10;99.90
26278;DHT22;14000;52.056;8.510;2022-11-20T04:11:16;-5.10;99.90
26278;DHT22;14000;52.056;8.510;2022-11-20T04:13:45;-5.10;99.90
26278;DHT22;14000;52.056;8.510;2022-11-20T04:16:10;-5.10;99.90
26278;DHT22;14000;52.056;8.510;2022-11-20T04:18:36;-5.10;99.90
26278;DHT22;14000;52.056;8.510;2022-11-20T04:21:03;-5.00;99.90
26278;DHT22;14000;52.056;8.510;2022-11-20T04:23:29;-5.10;99.90
26278;DHT22;14000;52.056;8.510;2022-11-20T04:26:00;-5.10;99.90
26278;DHT22;14000;52.056;8.510;2022-11-20T04:28:25;-5.10;99.90
26278;DHT22;14000;52.056;8.510;2022-11-20T04:30:51;-5.20;99.90
26278;DHT22;14000;52.056;8.510;2022-11-20T04:33:16;-5.10;99.90
26278;DHT22;14000;52.056;8.510;2022-11-20T04:35:48;-5.20;99.90
26278;DHT22;14000;52.056;8.510;2022-11-20T04:38:14;-5.20;99.90
26278;DHT22;14000;52.056;8.510;2022-11-20T04:40:39;-5.10;99.90
26278;DHT22;14000;52.056;8.510;2022-11-20T04:43:05;-5.20;99.90
26278;DHT22;14000;52.056;8.510;2022-11-20T04:45:30;-5.10;99.90
26278;DHT22;14000;52.056;8.510;2022-11-20T04:47:56;-5.10;99.90
26278;DHT22;14000;52.056;8.510;2022-11-20T04:50:22;-5.20;99.90
26278;DHT22;14000;52.056;8.510;2022-11-20T04:52:47;-5.20;99.90
26278;DHT22;14000;52.056;8.510;2022-11-20T04:55:13;-5.20;99.90
26278;DHT22;14000;52.056;8.510;2022-11-20T04:57:38;-5.20;99.90
26278;DHT22;14000;52.056;8.510;2022-11-20T05:00:05;-5.20;99.90
26278;DHT22;14000;52.056;8.510;2022-11-20T05:02:31;-5.20;99.90
26278;DHT22;14000;52.056;8.510;2022-11-20T05:04:56;-5.30;99.90
26278;DHT22;14000;52.056;8.510;2022-11-20T05:07:22;-5.30;99.90
26278;DHT22;14000;52.056;8.510;2022-11-20T05:09:48;-5.30;99.90
26278;DHT22;14000;52.056;8.510;2022-11-20T05:12:13;-5.30;99.90
26278;DHT22;14000;52.056;8.510;2022-11-20T05:14:39;-5.30;99.90
26278;DHT22;14000;52.056;8.510;2022-11-20T05:17:04;-5.30;99.90
26278;DHT22;14000;52.056;8.510;2022-11-20T05:19:30;-5.30;99.90
26278;DHT22;14000;52.056;8.510;2022-11-20T05:21:55;-5.30;99.90
26278;DHT22;14000;52.056;8.510;2022-11-20T05:24:21;-5.40;99.90
26278;DHT22;14000;52.056;8.510;2022-11-20T05:26:47;-5.30;99.90
26278;DHT22;14000;52.056;8.510;2022-11-20T05:29:13;-5.30;99.90
26278;DHT22;14000;52.056;8.510;2022-11-20T05:31:40;-5.30;99.90
26278;DHT22;14000;52.056;8.510;2022-11-20T05:34:06;-5.30;99.90
26278;DHT22;14000;52.056;8.510;2022-11-20T05:36:32;-5.30;99.90
26278;DHT22;14000;52.056;8.510;2022-11-20T05:38:57;-5.30;99.90
26278;DHT22;14000;52.056;8.510;2022-11-20T05:41:23;-5.30;99.90
26278;DHT22;14000;52.056;8.510;2022-11-20T05:43:49;-5.30;99.90
26278;DHT22;14000;52.056;8.510;2022-11-20T05:46:18;-5.30;99.90
26278;DHT22;14000;52.056;8.510;2022-11-20T05:48:44;-5.30;99.90
26278;DHT22;14000;52.056;8.510;2022-11-20T05:51:16;-5.40;99.90
26278;DHT22;14000;52.056;8.510;2022-11-20T05:53:42;-5.40;99.90
26278;DHT22;14000;52.056;8.510;2022-11-20T05:56:11;-5.50;99.90
26278;DHT22;14000;52.056;8.510;2022-11-20T05:58:38;-5.50;99.90
26278;DHT22;14000;52.056;8.510;2022-11-20T06:03:38;-5.50;99.90
26278;DHT22;14000;52.056;8.510;2022-11-20T06:06:04;-5.50;99.90
26278;DHT22;14000;52.056;8.510;2022-11-20T06:08:30;-5.60;99.90
26278;DHT22;14000;52.056;8.510;2022-11-20T06:10:56;-5.60;99.90
26278;DHT22;14000;52.056;8.510;2022-11-20T06:13:22;-5.60;99.90
26278;DHT22;14000;52.056;8.510;2022-11-20T06:15:52;-5.60;99.90
26278;DHT22;14000;52.056;8.510;2022-11-20T06:18:18;-5.50;99.90
26278;DHT22;14000;52.056;8.510;2022-11-20T06:20:44;-5.50;99.90
26278;DHT22;14000;52.056;8.510;2022-11-20T06:23:10;-5.60;99.90
26278;DHT22;14000;52.056;8.510;2022-11-20T06:25:40;-5.60;99.90
26278;DHT22;14000;52.056;8.510;2022-11-20T06:28:05;-5.50;99.90
26278;DHT22;14000;52.056;8.510;2022-11-20T06:30:31;-5.50;99.90
26278;DHT22;14000;52.056;8.510;2022-11-20T06:32:57;-5.50;99.90
26278;DHT22;14000;52.056;8.510;2022-11-20T06:35:22;-5.50;99.90
26278;DHT22;14000;52.056;8.510;2022-11-20T06:37:48;-5.50;99.90
26278;DHT22;14000;52.056;8.510;2022-11-20T06:40:14;-5.50;99.90
26278;DHT22;14000;52.056;8.510;2022-11-20T06:42:39;-5.50;99.90
26278;DHT22;14000;52.056;8.510;2022-11-20T06:45:05;-5.50;99.90
26278;DHT22;14000;52.056;8.510;2022-11-20T06:47:31;-5.60;99.90
26278;DHT22;14000;52.056;8.510;2022-11-20T06:49:56;-5.60;99.90
26278;DHT22;14000;52.056;8.510;2022-11-20T06:52:22;-5.60;99.90
26278;DHT22;14000;52.056;8.510;2022-11-20T06:54:47;-5.70;99.90
26278;DHT22;14000;52.056;8.510;2022-11-20T06:57:13;-5.70;99.90
26278;DHT22;14000;52.056;8.510;2022-11-20T06:59:39;-5.70;99.90
26278;DHT22;14000;52.056;8.510;2022-11-20T07:02:04;-5.70;99.90
26278;DHT22;14000;52.056;8.510;2022-11-20T07:04:30;-5.70;99.90
26278;DHT22;14000;52.056;8.510;2022-11-20T07:06:55;-5.70;99.90
26278;DHT22;14000;52.056;8.510;2022-11-20T07:09:21;-5.70;99.90
26278;DHT22;14000;52.056;8.510;2022-11-20T07:11:47;-5.70;99.90
26278;DHT22;14000;52.056;8.510;2022-11-20T07:14:12;-5.60;99.90
26278;DHT22;14000;52.056;8.510;2022-11-20T07:16:38;-5.50;99.90
26278;DHT22;14000;52.056;8.510;2022-11-20T07:19:03;-5.50;99.90
26278;DHT22;14000;52.056;8.510;2022-11-20T07:21:29;-5.50;99.90
26278;DHT22;14000;52.056;8.510;2022-11-20T07:23:54;-5.40;99.90
26278;DHT22;14000;52.056;8.510;2022-11-20T07:26:20;-5.40;99.90
26278;DHT22;14000;52.056;8.510;2022-11-20T07:28:45;-5.40;99.90
26278;DHT22;14000;52.056;8.510;2022-11-20T07:31:11;-5.40;99.90
26278;DHT22;14000;52.056;8.510;2022-11-20T07:33:38;-5.40;99.90
26278;DHT22;14000;52.056;8.510;2022-11-20T07:36:04;-5.30;99.90
26278;DHT22;14000;52.056;8.510;2022-11-20T07:38:30;-5.30;99.90
26278;DHT22;14000;52.056;8.510;2022-11-20T07:40:56;-5.30;99.90
26278;DHT22;14000;52.056;8.510;2022-11-20T07:43:23;-5.20;99.90
26278;DHT22;14000;52.056;8.510;2022-11-20T07:45:49;-5.30;99.90
26278;DHT22;14000;52.056;8.510;2022-11-20T07:48:14;-5.20;99.90
26278;DHT22;14000;52.056;8.510;2022-11-20T07:50:40;-5.20;99.90
26278;DHT22;14000;52.056;8.510;2022-11-20T07:53:06;-4.20;99.90
26278;DHT22;14000;52.056;8.510;2022-11-20T07:55:32;-5.00;99.90
26278;DHT22;14000;52.056;8.510;2022-11-20T07:57:57;-4.90;99.90
26278;DHT22;14000;52.056;8.510;2022-11-20T08:00:24;-4.80;99.90
26278;DHT22;14000;52.056;8.510;2022-11-20T08:02:50;-4.70;99.90
26278;DHT22;14000;52.056;8.510;2022-11-20T08:05:16;-4.60;99.90
26278;DHT22;14000;52.056;8.510;2022-11-20T08:07:43;-4.50;99.90
26278;DHT22;14000;52.056;8.510;2022-11-20T08:10:10;-4.30;99.90
26278;DHT22;14000;52.056;8.510;2022-11-20T08:12:42;-4.20;99.90
26278;DHT22;14000;52.056;8.510;2022-11-20T08:15:27;-4.20;99.90
26278;DHT22;14000;52.056;8.510;2022-11-20T08:17:59;-4.10;99.90
26278;DHT22;14000;52.056;8.510;2022-11-20T08:20:25;-4.10;99.90
26278;DHT22;14000;52.056;8.510;2022-11-20T08:22:51;-3.70;99.90
26278;DHT22;14000;52.056;8.510;2022-11-20T08:25:16;-4.00;99.90
26278;DHT22;14000;52.056;8.510;2022-11-20T08:27:42;-3.90;99.90
26278;DHT22;14000;52.056;8.510;2022-11-20T08:30:08;-3.80;99.90
26278;DHT22;14000;52.056;8.510;2022-11-20T08:32:45;-3.70;99.90
26278;DHT22;14000;52.056;8.510;2022-11-20T08:35:11;-3.50;99.90
26278;DHT22;14000;52.056;8.510;2022-11-20T08:37:39;-3.30;99.90
26278;DHT22;14000;52.056;8.510;2022-11-20T08:40:09;-3.00;99.90
26278;DHT22;14000;52.056;8.510;2022-11-20T08:42:37;-2.80;99.90
26278;DHT22;14000;52.056;8.510;2022-11-20T11:01:55;1.60;99.90
26278;DHT22;14000;52.056;8.510;2022-11-20T11:04:40;1.70;99.90
26278;DHT22;14000;52.056;8.510;2022-11-20T11:07:16;1.70;99.90
26278;DHT22;14000;52.056;8.510;2022-11-20T11:09:46;1.80;99.90
26278;DHT22;14000;52.056;8.510;2022-11-20T11:12:13;1.80;99.90
26278;DHT22;14000;52.056;8.510;2022-11-20T11:14:53;1.90;99.90
26278;DHT22;14000;52.056;8.510;2022-11-20T11:17:33;2.10;99.90
26278;DHT22;14000;52.056;8.510;2022-11-20T11:22:54;5.00;99.90
26278;DHT22;14000;52.056;8.510;2022-11-20T11:25:30;7.70;99.90
26278;DHT22;14000;52.056;8.510;2022-11-20T11:28:04;9.90;99.90
26278;DHT22;14000;52.056;8.510;2022-11-20T11:30:40;11.80;99.90
26278;DHT22;14000;52.056;8.510;2022-11-20T11:33:10;13.20;99.90
26278;DHT22;14000;52.056;8.510;2022-11-20T11:35:53;14.40;99.90
26278;DHT22;14000;52.056;8.510;2022-11-20T11:38:42;14.90;99.90
26278;DHT22;14000;52.056;8.510;2022-11-20T11:41:20;15.30;99.90
26278;DHT22;14000;52.056;8.510;2022-11-20T11:43:55;15.70;99.90
26278;DHT22;14000;52.056;8.510;2022-11-20T11:46:44;15.70;99.90
26278;DHT22;14000;52.056;8.510;2022-11-20T11:49:17;13.90;99.90
26278;DHT22;14000;52.056;8.510;2022-11-20T11:52:12;12.80;99.90
26278;DHT22;14000;52.056;8.510;2022-11-20T11:55:00;11.70;99.90
26278;DHT22;14000;52.056;8.510;2022-11-20T12:00:12;9.10;99.90
26278;DHT22;14000;52.056;8.510;2022-11-20T12:05:26;8.30;99.90
26278;DHT22;14000;52.056;8.510;2022-11-20T12:07:54;6.40;99.90
26278;DHT22;14000;52.056;8.510;2022-11-20T12:10:43;6.20;99.90
26278;DHT22;14000;52.056;8.510;2022-11-20T12:15:58;5.50;99.90
26278;DHT22;14000;52.056;8.510;2022-11-20T12:18:24;5.20;99.90
26278;DHT22;14000;52.056;8.510;2022-11-20T12:21:06;5.10;99.90
26278;DHT22;14000;52.056;8.510;2022-11-20T12:29:43;4.70;99.90
26278;DHT22;14000;52.056;8.510;2022-11-20T12:38:35;4.70;99.90
26278;DHT22;14000;52.056;8.510;2022-11-20T12:40:52;4.70;99.90
26278;DHT22;14000;52.056;8.510;2022-11-20T12:43:25;4.70;99.90
26278;DHT22;14000;52.056;8.510;2022-11-20T12:46:27;4.70;99.90
26278;DHT22;14000;52.056;8.510;2022-11-20T12:49:03;4.80;99.90
26278;DHT22;14000;52.056;8.510;2022-11-20T12:57:19;5.00;99.90
26278;DHT22;14000;52.056;8.510;2022-11-20T12:59:58;5.00;99.90
26278;DHT22;14000;52.056;8.510;2022-11-20T13:07:35;4.90;99.90
26278;DHT22;14000;52.056;8.510;2022-11-20T13:10:01;5.00;99.90
26278;DHT22;14000;52.056;8.510;2022-11-20T13:12:36;4.90;99.90
26278;DHT22;14000;52.056;8.510;2022-11-20T13:18:00;5.10;99.90
26278;DHT22;14000;52.056;8.510;2022-11-20T13:20:27;5.20;99.90
26278;DHT22;14000;52.056;8.510;2022-11-20T13:22:54;5.40;99.90
26278;DHT22;14000;52.056;8.510;2022-11-20T13:25:34;5.50;99.90
26278;DHT22;14000;52.056;8.510;2022-11-20T13:30:50;5.30;99.90
26278;DHT22;14000;52.056;8.510;2022-11-20T13:33:34;5.40;99.90
26278;DHT22;14000;52.056;8.510;2022-11-20T13:36:01;5.30;99.90
26278;DHT22;14000;52.056;8.510;2022-11-20T13:38:28;5.60;99.90
26278;DHT22;14000;52.056;8.510;2022-11-20T13:41:08;5.70;99.90
26278;DHT22;14000;52.056;8.510;2022-11-20T13:43:52;5.60;99.90
26278;DHT22;14000;52.056;8.510;2022-11-20T13:46:19;5.70;99.90
26278;DHT22;14000;52.056;8.510;2022-11-20T13:48:50;5.80;99.90
26278;DHT22;14000;52.056;8.510;2022-11-20T13:51:37;5.60;99.90
26278;DHT22;14000;52.056;8.510;2022-11-20T14:02:01;4.50;99.90
26278;DHT22;14000;52.056;8.510;2022-11-20T14:04:33;4.40;99.90
26278;DHT22;14000;52.056;8.510;2022-11-20T14:07:00;4.50;99.90
26278;DHT22;14000;52.056;8.510;2022-11-20T14:09:27;4.70;99.90
26278;DHT22;14000;52.056;8.510;2022-11-20T14:11:53;5.00;99.90
26278;DHT22;14000;52.056;8.510;2022-11-20T14:14:23;5.20;99.90
26278;DHT22;14000;52.056;8.510;2022-11-20T14:16:50;5.20;99.90
26278;DHT22;14000;52.056;8.510;2022-11-20T14:19:29;5.00;99.90
26278;DHT22;14000;52.056;8.510;2022-11-20T14:24:42;4.50;99.90
26278;DHT22;14000;52.056;8.510;2022-11-20T14:27:13;4.30;99.90
26278;DHT22;14000;52.056;8.510;2022-11-20T14:29:39;4.10;99.90
26278;DHT22;14000;52.056;8.510;2022-11-20T14:32:09;3.90;99.90
26278;DHT22;14000;52.056;8.510;2022-11-20T14:34:39;3.80;99.90
26278;DHT22;14000;52.056;8.510;2022-11-20T14:37:10;3.70;99.90
26278;DHT22;14000;52.056;8.510;2022-11-20T14:39:40;3.60;99.90
26278;DHT22;14000;52.056;8.510;2022-11-20T14:44:46;3.40;99.90
26278;DHT22;14000;52.056;8.510;2022-11-20T14:47:17;3.20;99.90
26278;DHT22;14000;52.056;8.510;2022-11-20T14:49:44;3.10;99.90
26278;DHT22;14000;52.056;8.510;2022-11-20T14:52:15;3.00;99.90
26278;DHT22;14000;52.056;8.510;2022-11-20T14:54:49;3.00;99.90
26278;DHT22;14000;52.056;8.510;2022-11-20T14:57:30;2.90;99.90
26278;DHT22;14000;52.056;8.510;2022-11-20T15:02:41;2.70;99.90
26278;DHT22;14000;52.056;8.510;2022-11-20T15:05:07;2.60;99.90
26278;DHT22;14000;52.056;8.510;2022-11-20T15:07:36;2.60;99.90
26278;DHT22;14000;52.056;8.510;2022-11-20T15:10:13;2.50;99.90
26278;DHT22;14000;52.056;8.510;2022-11-20T15:12:56;2.40;99.90
26278;DHT22;14000;52.056;8.510;2022-11-20T15:15:36;2.30;99.90
26278;DHT22;14000;52.056;8.510;2022-11-20T15:18:04;2.30;99.90
26278;DHT22;14000;52.056;8.510;2022-11-20T15:20:33;2.30;99.90
26278;DHT22;14000;52.056;8.510;2022-11-20T15:23:01;2.30;99.90
26278;DHT22;14000;52.056;8.510;2022-11-20T15:25:26;2.30;99.90
26278;DHT22;14000;52.056;8.510;2022-11-20T15:27:56;2.20;99.90
26278;DHT22;14000;52.056;8.510;2022-11-20T15:30:23;2.20;99.90
26278;DHT22;14000;52.056;8.510;2022-11-20T15:32:49;2.20;99.90
26278;DHT22;14000;52.056;8.510;2022-11-20T15:35:15;2.20;99.90
26278;DHT22;14000;52.056;8.510;2022-11-20T15:37:41;2.20;99.90
26278;DHT22;14000;52.056;8.510;2022-11-20T15:40:07;2.20;99.90
26278;DHT22;14000;52.056;8.510;2022-11-20T15:42:33;2.10;99.90
26278;DHT22;14000;52.056;8.510;2022-11-20T15:44:59;2.20;99.90
26278;DHT22;14000;52.056;8.510;2022-11-20T15:47:28;2.00;99.90
26278;DHT22;14000;52.056;8.510;2022-11-20T15:49:55;3.00;99.90
26278;DHT22;14000;52.056;8.510;2022-11-20T15:52:21;1.80;99.90
26278;DHT22;14000;52.056;8.510;2022-11-20T15:54:46;1.80;99.90
26278;DHT22;14000;52.056;8.510;2022-11-20T15:57:12;1.80;99.90
26278;DHT22;14000;52.056;8.510;2022-11-20T15:59:38;1.80;99.90
26278;DHT22;14000;52.056;8.510;2022-11-20T16:02:11;1.80;99.90
26278;DHT22;14000;52.056;8.510;2022-11-20T16:04:37;1.80;99.90
26278;DHT22;14000;52.056;8.510;2022-11-20T16:07:02;1.90;99.90
26278;DHT22;14000;52.056;8.510;2022-11-20T16:09:28;1.90;99.90
26278;DHT22;14000;52.056;8.510;2022-11-20T16:11:54;1.90;99.90
26278;DHT22;14000;52.056;8.510;2022-11-20T16:14:19;1.90;99.90
26278;DHT22;14000;52.056;8.510;2022-11-20T16:17:03;1.90;99.90
26278;DHT22;14000;52.056;8.510;2022-11-20T16:19:29;1.90;99.90
26278;DHT22;14000;52.056;8.510;2022-11-20T16:21:54;1.90;99.90
26278;DHT22;14000;52.056;8.510;2022-11-20T16:24:20;1.80;99.90
26278;DHT22;14000;52.056;8.510;2022-11-20T16:26:45;1.80;99.90
26278;DHT22;14000;52.056;8.510;2022-11-20T16:29:11;1.80;99.90
26278;DHT22;14000;52.056;8.510;2022-11-20T16:31:37;1.90;99.90
26278;DHT22;14000;52.056;8.510;2022-11-20T16:34:05;1.90;99.90
26278;DHT22;14000;52.056;8.510;2022-11-20T16:36:32;1.80;99.90
26278;DHT22;14000;52.056;8.510;2022-11-20T16:38:59;1.80;99.90
26278;DHT22;14000;52.056;8.510;2022-11-20T16:41:27;1.80;99.90
26278;DHT22;14000;52.056;8.510;2022-11-20T16:43:54;1.80;99.90
26278;DHT22;14000;52.056;8.510;2022-11-20T16:46:29;1.90;99.90
26278;DHT22;14000;52.056;8.510;2022-11-20T16:51:23;1.90;99.90
26278;DHT22;14000;52.056;8.510;2022-11-20T16:53:49;1.90;99.90
26278;DHT22;14000;52.056;8.510;2022-11-20T16:56:17;1.90;99.90
26278;DHT22;14000;52.056;8.510;2022-11-20T16:58:44;1.90;99.90
26278;DHT22;14000;52.056;8.510;2022-11-20T17:01:12;1.90;99.90
26278;DHT22;14000;52.056;8.510;2022-11-20T17:03:39;1.90;99.90
26278;DHT22;14000;52.056;8.510;2022-11-20T17:06:13;1.90;99.90
26278;DHT22;14000;52.056;8.510;2022-11-20T17:08:39;1.90;99.90
26278;DHT22;14000;52.056;8.510;2022-11-20T17:11:10;2.00;99.90
26278;DHT22;14000;52.056;8.510;2022-11-20T17:13:36;1.90;99.90
26278;DHT22;14000;52.056;8.510;2022-11-20T17:16:04;1.10;99.90
26278;DHT22;14000;52.056;8.510;2022-11-20T17:18:30;1.90;99.90
26278;DHT22;14000;52.056;8.510;2022-11-20T17:20:56;1.90;99.90
26278;DHT22;14000;52.056;8.510;2022-11-20T17:23:22;1.90;99.90
26278;DHT22;14000;52.056;8.510;2022-11-20T17:25:48;1.90;99.90
26278;DHT22;14000;52.056;8.510;2022-11-20T17:28:13;1.90;99.90
26278;DHT22;14000;52.056;8.510;2022-11-20T17:30:42;1.90;99.90
26278;DHT22;14000;52.056;8.510;2022-11-20T17:33:08;1.90;99.90
26278;DHT22;14000;52.056;8.510;2022-11-20T17:35:35;1.90;99.90
26278;DHT22;14000;52.056;8.510;2022-11-20T17:38:01;1.80;99.90
26278;DHT22;14000;52.056;8.510;2022-11-20T17:40:26;1.80;99.90
26278;DHT22;14000;52.056;8.510;2022-11-20T17:42:52;1.80;99.90
26278;DHT22;14000;52.056;8.510;2022-11-20T17:45:17;1.80;99.90
26278;DHT22;14000;52.056;8.510;2022-11-20T17:47:43;1.80;99.90
26278;DHT22;14000;52.056;8.510;2022-11-20T17:50:10;1.80;99.90
26278;DHT22;14000;52.056;8.510;2022-11-20T17:52:36;1.70;99.90
26278;DHT22;14000;52.056;8.510;2022-11-20T17:55:02;1.80;99.90
26278;DHT22;14000;52.056;8.510;2022-11-20T17:57:27;1.70;99.90
26278;DHT22;14000;52.056;8.510;2022-11-20T18:00:12;1.70;99.90
26278;DHT22;14000;52.056;8.510;2022-11-20T18:02:38;1.70;99.90
26278;DHT22;14000;52.056;8.510;2022-11-20T18:05:03;1.70;99.90
26278;DHT22;14000;52.056;8.510;2022-11-20T18:07:29;1.70;99.90
26278;DHT22;14000;52.056;8.510;2022-11-20T18:09:54;1.60;99.90
26278;DHT22;14000;52.056;8.510;2022-11-20T18:12:20;1.60;99.90
26278;DHT22;14000;52.056;8.510;2022-11-20T18:14:46;2.50;99.90
26278;DHT22;14000;52.056;8.510;2022-11-20T18:17:13;1.60;99.90
26278;DHT22;14000;52.056;8.510;2022-11-20T18:19:44;1.70;99.90
26278;DHT22;14000;52.056;8.510;2022-11-20T18:22:11;1.60;99.90
26278;DHT22;14000;52.056;8.510;2022-11-20T18:24:37;1.60;99.90
26278;DHT22;14000;52.056;8.510;2022-11-20T18:27:07;1.60;99.90
26278;DHT22;14000;52.056;8.510;2022-11-20T18:29:33;1.60;99.90
26278;DHT22;14000;52.056;8.510;2022-11-20T18:31:59;1.60;99.90
26278;DHT22;14000;52.056;8.510;2022-11-20T18:34:25;1.60;99.90
26278;DHT22;14000;52.056;8.510;2022-11-20T18:36:51;1.60;99.90
26278;DHT22;14000;52.056;8.510;2022-11-20T18:39:17;1.60;99.90
26278;DHT22;14000;52.056;8.510;2022-11-20T18:41:43;1.60;99.90
26278;DHT22;14000;52.056;8.510;2022-11-20T18:44:29;1.60;99.90
26278;DHT22;14000;52.056;8.510;2022-11-20T18:47:16;1.60;99.90
26278;DHT22;14000;52.056;8.510;2022-11-20T18:49:42;1.60;99.90
26278;DHT22;14000;52.056;8.510;2022-11-20T18:52:11;1.60;99.90
26278;DHT22;14000;52.056;8.510;2022-11-20T18:54:37;1.50;99.90
26278;DHT22;14000;52.056;8.510;2022-11-20T18:57:03;1.50;99.90
26278;DHT22;14000;52.056;8.510;2022-11-20T18:59:29;1.40;99.90
26278;DHT22;14000;52.056;8.510;2022-11-20T19:01:54;1.40;99.90
26278;DHT22;14000;52.056;8.510;2022-11-20T19:04:20;1.40;99.90
26278;DHT22;14000;52.056;8.510;2022-11-20T19:06:48;1.30;99.90
26278;DHT22;14000;52.056;8.510;2022-11-20T19:09:14;1.30;99.90